Time;durP1;ratioP1;P1;durP2;ratioP2;P2;SDS_P1;SDS_P2;PMS_P1;PMS_P2;Temp;Humidity;BMP_temperature;BMP_pressure;BME280_temperature;BME280_humidity;BME280_pressure;Samples;Min_cycle;Max_cycle;Signal;HPM_P1;HPM_P2
2023/05/27 00:00:06;;;;;;;16.55;3.40;;;10.70;99.90;;;;;;5097313;28;20428;-77
2023/05/27 00:02:32;;;;;;;20.38;4.60;;;10.70;99.90;;;;;;5091670;28;20154;-79
2023/05/27 00:04:58;;;;;;;17.25;3.47;;;10.70;99.90;;;;;;5109214;28;20134;-77
2023/05/27 00:07:24;;;;;;;13.50;3.60;;;10.60;99.90;;;;;;5101369;28;20071;-78
2023/05/27 00:09:50;;;;;;;14.52;3.28;;;10.60;99.90;;;;;;5082503;28;20052;-76
2023/05/27 00:12:16;;;;;;;13.52;3.40;;;10.70;99.90;;;;;;5126778;28;20051;-76
2023/05/27 00:14:42;;;;;;;19.52;3.45;;;10.70;99.90;;;;;;5108554;28;20483;-76
2023/05/27 00:17:13;;;;;;;15.13;3.50;;;10.70;99.90;;;;;;5096789;28;20127;-76
2023/05/27 00:19:44;;;;;;;18.65;4.20;;;10.70;99.90;;;;;;5095731;28;20055;-77
2023/05/27 00:22:11;;;;;;;17.83;4.00;;;10.60;99.90;;;;;;5110461;28;20117;-75
2023/05/27 00:24:39;;;;;;;20.83;4.32;;;10.60;99.90;;;;;;5093261;28;20090;-84
2023/05/27 00:27:09;;;;;;;16.60;3.63;;;10.60;99.90;;;;;;5127469;27;20109;-78
2023/05/27 00:29:35;;;;;;;17.17;3.70;;;10.60;99.90;;;;;;5100973;28;20042;-78
2023/05/27 00:32:02;;;;;;;19.50;4.13;;;10.60;99.90;;;;;;5112105;28;20535;-77
2023/05/27 00:34:29;;;;;;;17.83;3.50;;;10.60;99.90;;;;;;5091487;28;20135;-77
2023/05/27 00:36:54;;;;;;;17.15;3.72;;;10.60;99.90;;;;;;5067862;28;20142;-77
2023/05/27 00:39:20;;;;;;;14.27;3.67;;;10.60;99.90;;;;;;5123889;27;20118;-77
2023/05/27 00:41:50;;;;;;;13.40;3.50;;;10.50;99.90;;;;;;5108111;28;20043;-79
2023/05/27 00:44:17;;;;;;;17.17;3.90;;;10.50;99.90;;;;;;5109490;28;20048;-77
2023/05/27 00:46:44;;;;;;;17.52;3.58;;;10.50;99.90;;;;;;5092350;28;20089;-81
2023/05/27 00:49:10;;;;;;;15.10;4.03;;;10.50;99.90;;;;;;5107982;28;20044;-79
2023/05/27 00:51:36;;;;;;;14.32;4.10;;;10.50;99.90;;;;;;5099709;28;20046;-78
2023/05/27 00:54:02;;;;;;;15.27;3.63;;;10.50;99.90;;;;;;5112641;28;20044;-77
2023/05/27 00:56:27;;;;;;;12.02;3.65;;;10.40;99.90;;;;;;5147879;27;20089;-77
2023/05/27 00:58:53;;;;;;;19.60;4.63;;;10.40;99.90;;;;;;5096105;28;20043;-77
2023/05/27 01:01:19;;;;;;;16.65;4.03;;;10.40;99.90;;;;;;5127120;27;20040;-78
2023/05/27 01:03:47;;;;;;;18.45;4.10;;;10.40;99.90;;;;;;5090750;28;20047;-79
2023/05/27 01:06:30;;;;;;;15.77;4.07;;;10.30;99.90;;;;;;5126832;27;20051;-78
2023/05/27 01:09:34;;;;;;;16.08;4.07;;;10.30;99.90;;;;;;5091866;28;20091;-78
2023/05/27 01:12:15;;;;;;;17.10;3.63;;;10.30;99.90;;;;;;5052625;28;20052;-79
2023/05/27 01:14:43;;;;;;;20.02;4.68;;;10.20;99.90;;;;;;5128034;27;20039;-82
2023/05/27 01:17:10;;;;;;;12.27;3.70;;;10.20;99.90;;;;;;5110353;28;20062;-77
2023/05/27 01:19:44;;;;;;;18.52;4.20;;;10.20;99.90;;;;;;5091089;28;20101;-78
2023/05/27 01:22:15;;;;;;;21.42;4.00;;;10.10;99.90;;;;;;5092600;28;20112;-77
2023/05/27 01:24:44;;;;;;;18.20;3.78;;;10.10;99.90;;;;;;5126131;27;20055;-83
2023/05/27 01:27:11;;;;;;;16.33;3.60;;;10.10;99.90;;;;;;5093292;28;20047;-79
2023/05/27 01:29:39;;;;;;;14.23;4.30;;;10.00;99.90;;;;;;5062149;28;20055;-77
2023/05/27 01:32:36;;;;;;;16.10;3.90;;;10.00;99.90;;;;;;5111028;28;20503;-78
2023/05/27 01:35:36;;;;;;;14.73;3.83;;;9.90;99.90;;;;;;5090047;28;20496;-77
2023/05/27 01:38:06;;;;;;;17.98;4.38;;;9.90;99.90;;;;;;5093763;28;20297;-77
2023/05/27 01:40:34;;;;;;;16.13;4.03;;;9.90;99.90;;;;;;5129629;27;20048;-79
2023/05/27 01:43:00;;;;;;;15.57;3.80;;;9.90;99.90;;;;;;5128634;27;20081;-77
2023/05/27 01:45:26;;;;;;;14.63;3.58;;;9.80;99.90;;;;;;5112373;28;20047;-77
2023/05/27 01:47:52;;;;;;;13.45;3.63;;;9.80;99.90;;;;;;5109786;28;20044;-78
2023/05/27 01:50:17;;;;;;;13.65;3.85;;;9.80;99.90;;;;;;5112002;28;20135;-79
2023/05/27 01:52:43;;;;;;;22.52;4.55;;;9.80;99.90;;;;;;5111709;28;20075;-83
2023/05/27 01:55:10;;;;;;;12.85;4.10;;;9.70;99.90;;;;;;5128923;27;20031;-77
2023/05/27 01:57:36;;;;;;;12.80;4.57;;;9.80;99.90;;;;;;5128688;27;20047;-77
2023/05/27 02:00:04;;;;;;;16.50;4.00;;;9.70;99.90;;;;;;5111451;28;20059;-79
2023/05/27 02:02:31;;;;;;;13.50;4.30;;;9.70;99.90;;;;;;5107529;28;20483;-78
2023/05/27 02:04:57;;;;;;;16.95;4.20;;;9.70;99.90;;;;;;5096619;28;20592;-78
2023/05/27 02:07:22;;;;;;;15.88;3.88;;;9.60;99.90;;;;;;5125496;27;20040;-78
2023/05/27 02:09:49;;;;;;;16.40;3.97;;;9.60;99.90;;;;;;5124508;27;20059;-77
2023/05/27 02:12:15;;;;;;;15.25;4.38;;;9.60;99.90;;;;;;5090987;28;20052;-77
2023/05/27 02:14:40;;;;;;;17.25;4.22;;;9.60;99.90;;;;;;5124845;27;20047;-77
2023/05/27 02:17:07;;;;;;;19.27;5.00;;;9.60;99.90;;;;;;5107720;28;20059;-78
2023/05/27 02:19:33;;;;;;;12.85;4.40;;;9.60;99.90;;;;;;5123890;27;20112;-77
2023/05/27 02:21:59;;;;;;;15.05;3.97;;;9.50;99.90;;;;;;5090985;28;20088;-77
2023/05/27 02:24:25;;;;;;;14.60;3.88;;;9.50;99.90;;;;;;5108250;28;20097;-77
2023/05/27 02:26:50;;;;;;;16.98;4.45;;;9.50;99.90;;;;;;5107598;28;20066;-78
2023/05/27 02:29:16;;;;;;;19.88;4.55;;;9.50;99.90;;;;;;5107552;28;20058;-77
2023/05/27 02:31:42;;;;;;;16.20;4.13;;;9.40;99.90;;;;;;5125220;27;20044;-78
2023/05/27 02:34:07;;;;;;;16.48;4.22;;;9.50;99.90;;;;;;5084819;28;20485;-78
2023/05/27 02:36:33;;;;;;;23.38;4.88;;;9.40;99.90;;;;;;5125060;27;20090;-77
2023/05/27 02:38:59;;;;;;;18.30;4.80;;;9.40;99.90;;;;;;5107262;28;20044;-79
2023/05/27 02:41:26;;;;;;;18.05;4.70;;;9.40;99.90;;;;;;5124857;27;20508;-78
2023/05/27 02:43:51;;;;;;;18.00;4.35;;;9.40;99.90;;;;;;5089574;28;20501;-78
2023/05/27 02:46:17;;;;;;;16.63;4.25;;;9.40;99.90;;;;;;5107802;28;20058;-78
2023/05/27 02:48:43;;;;;;;17.20;4.32;;;9.50;99.90;;;;;;5104301;28;20039;-78
2023/05/27 02:51:09;;;;;;;16.33;4.38;;;9.50;99.90;;;;;;5110342;28;20541;-79
2023/05/27 02:53:34;;;;;;;22.70;4.60;;;9.60;99.90;;;;;;5109349;28;20430;-78
2023/05/27 02:56:00;;;;;;;21.08;4.60;;;9.60;99.90;;;;;;5126741;27;20043;-77
2023/05/27 02:58:26;;;;;;;18.45;4.53;;;9.60;99.90;;;;;;5124545;27;20040;-78
2023/05/27 03:00:52;;;;;;;13.10;4.07;;;9.60;99.90;;;;;;5123614;27;20052;-78
2023/05/27 03:03:18;;;;;;;14.65;4.28;;;9.60;99.90;;;;;;5122147;27;20570;-77
2023/05/27 03:05:43;;;;;;;20.35;4.25;;;9.50;99.90;;;;;;5107568;28;20394;-77
2023/05/27 03:08:09;;;;;;;17.08;4.25;;;9.50;99.90;;;;;;5090717;28;20562;-77
2023/05/27 03:10:35;;;;;;;21.75;4.82;;;9.40;99.90;;;;;;5090330;28;20084;-77
2023/05/27 03:13:01;;;;;;;14.27;3.80;;;9.50;99.90;;;;;;5121465;27;20503;-77
2023/05/27 03:15:29;;;;;;;16.25;5.10;;;9.50;99.90;;;;;;5124300;27;20071;-78
2023/05/27 03:17:56;;;;;;;15.00;4.45;;;9.60;99.90;;;;;;5102155;28;20047;-79
2023/05/27 03:20:22;;;;;;;15.70;4.32;;;9.60;99.90;;;;;;5127889;27;20044;-78
2023/05/27 03:22:47;;;;;;;14.60;4.55;;;9.70;99.90;;;;;;5094595;28;20309;-78
2023/05/27 03:25:14;;;;;;;19.33;4.88;;;9.70;99.90;;;;;;5106752;28;20052;-78
2023/05/27 03:27:40;;;;;;;17.55;5.15;;;9.80;99.90;;;;;;5123781;28;20097;-78
2023/05/27 03:30:06;;;;;;;;;;;9.90;99.90;;;;;;5090149;28;20040;-77
2023/05/27 03:32:31;;;;;;;13.95;4.35;;;9.90;99.90;;;;;;5123376;28;19924;-79
2023/05/27 03:34:57;;;;;;;19.65;5.07;;;9.90;99.90;;;;;;5088487;28;20097;-78
2023/05/27 03:37:23;;;;;;;19.27;4.07;;;9.90;99.90;;;;;;5116825;28;20055;-78
2023/05/27 03:39:48;;;;;;;19.40;4.53;;;9.90;99.90;;;;;;5110220;28;20093;-77
2023/05/27 03:42:14;;;;;;;21.50;5.00;;;9.90;99.90;;;;;;5109417;28;20051;-79
2023/05/27 03:44:40;;;;;;;14.45;4.40;;;9.90;99.90;;;;;;5124027;28;20090;-77
2023/05/27 03:47:06;;;;;;;18.75;4.78;;;9.90;99.90;;;;;;5072268;28;20056;-77
2023/05/27 03:49:31;;;;;;;18.83;4.95;;;9.90;99.90;;;;;;5088227;28;20149;-78
2023/05/27 03:51:58;;;;;;;18.42;4.95;;;10.00;99.90;;;;;;5078255;28;20477;-83
2023/05/27 03:54:24;;;;;;;14.73;4.40;;;10.00;99.90;;;;;;5091649;28;20040;-77
2023/05/27 03:56:50;;;;;;;;;;;10.00;99.90;;;;;;5110693;28;20537;-78
2023/05/27 03:59:17;;;;;;;12.13;4.13;;;9.90;99.90;;;;;;5146592;27;19981;-78
2023/05/27 04:01:44;;;;;;;15.00;4.47;;;9.90;99.90;;;;;;5131328;27;20040;-77
2023/05/27 04:04:10;;;;;;;21.17;5.78;;;9.90;99.90;;;;;;5094482;28;20054;-78
2023/05/27 04:06:36;;;;;;;18.02;4.90;;;9.90;99.90;;;;;;5131042;27;20051;-77
2023/05/27 04:09:03;;;;;;;15.05;5.18;;;9.80;99.90;;;;;;5129789;27;20106;-78
2023/05/27 04:11:30;;;;;;;14.30;4.78;;;9.80;99.90;;;;;;5114168;28;20059;-77
2023/05/27 04:13:56;;;;;;;16.90;4.80;;;9.80;99.90;;;;;;5113399;28;20050;-77
2023/05/27 04:16:22;;;;;;;25.30;5.20;;;9.70;99.90;;;;;;5113099;28;20051;-77
2023/05/27 04:18:50;;;;;;;17.05;4.75;;;9.70;99.90;;;;;;5129050;27;20153;-77
2023/05/27 04:21:16;;;;;;;17.27;4.65;;;9.70;99.90;;;;;;5112935;28;20059;-77
2023/05/27 04:23:42;;;;;;;14.90;4.38;;;9.70;99.90;;;;;;5113851;28;20052;-78
2023/05/27 04:26:08;;;;;;;14.23;4.35;;;9.70;99.90;;;;;;5130536;27;20049;-77
2023/05/27 04:28:35;;;;;;;24.55;5.28;;;9.70;99.90;;;;;;5110922;28;20126;-77
2023/05/27 04:31:01;;;;;;;18.42;4.78;;;9.70;99.90;;;;;;5130283;27;20055;-83
2023/05/27 04:33:26;;;;;;;12.18;4.57;;;9.70;99.90;;;;;;5108230;28;20036;-78
2023/05/27 04:35:53;;;;;;;17.45;4.57;;;9.70;99.90;;;;;;5127065;27;20489;-77
2023/05/27 04:38:20;;;;;;;20.25;4.63;;;9.70;99.90;;;;;;5109534;28;20061;-78
2023/05/27 04:40:52;;;;;;;13.98;4.43;;;9.80;99.90;;;;;;5092930;28;20109;-77
2023/05/27 04:43:19;;;;;;;16.10;5.30;;;9.80;99.90;;;;;;5092240;28;20062;-77
2023/05/27 04:45:45;;;;;;;23.90;4.70;;;9.90;99.90;;;;;;5092769;28;20052;-77
2023/05/27 04:48:11;;;;;;;16.50;4.55;;;9.90;99.90;;;;;;5090410;28;20576;-78
2023/05/27 04:50:37;;;;;;;18.70;4.82;;;9.90;99.90;;;;;;5092882;28;20122;-77
2023/05/27 04:53:03;;;;;;;14.43;4.00;;;9.90;99.90;;;;;;5095984;28;20048;-84
2023/05/27 04:55:30;;;;;;;17.40;4.82;;;9.90;99.90;;;;;;5092578;28;20048;-79
2023/05/27 04:57:56;;;;;;;20.52;4.43;;;9.90;99.90;;;;;;5092218;28;20056;-77
2023/05/27 05:03:07;;;;;;;17.55;4.95;;;9.90;99.90;;;;;;5133964;27;20132;-82
2023/05/27 05:05:33;;;;;;;16.67;4.78;;;10.00;99.90;;;;;;5111650;28;20112;-77
2023/05/27 05:07:58;;;;;;;20.42;4.72;;;9.90;99.90;;;;;;5118812;27;20040;-77
2023/05/27 05:10:25;;;;;;;17.80;4.70;;;10.00;99.90;;;;;;5126282;27;20052;-77
2023/05/27 05:12:51;;;;;;;18.88;4.68;;;10.00;99.90;;;;;;5092078;28;20105;-77
2023/05/27 05:15:17;;;;;;;22.45;5.03;;;10.00;99.90;;;;;;5092212;28;20048;-78
2023/05/27 05:17:42;;;;;;;;;;;10.00;99.90;;;;;;5093827;28;20058;-78
2023/05/27 05:20:09;;;;;;;16.27;4.43;;;10.00;99.90;;;;;;5095092;28;19927;-81
2023/05/27 05:22:34;;;;;;;;;;;10.10;99.90;;;;;;5113002;28;20504;-78
2023/05/27 05:25:00;;;;;;;23.98;4.97;;;10.10;99.90;;;;;;5112627;28;19977;-78
2023/05/27 05:27:27;;;;;;;16.70;4.75;;;10.10;99.90;;;;;;5120845;27;20828;-78
2023/05/27 05:29:53;;;;;;;14.63;4.35;;;10.10;99.90;;;;;;5092027;28;20051;-78
2023/05/27 05:32:19;;;;;;;19.13;5.10;;;10.20;99.90;;;;;;5088410;28;20070;-77
2023/05/27 05:34:45;;;;;;;18.70;5.25;;;10.20;99.90;;;;;;5115990;27;20056;-77
2023/05/27 05:37:11;;;;;;;19.40;4.82;;;10.30;99.90;;;;;;5125708;27;20496;-78
2023/05/27 05:39:37;;;;;;;25.65;4.80;;;10.30;99.90;;;;;;5091924;28;20056;-79
2023/05/27 05:42:03;;;;;;;18.63;4.85;;;10.30;99.90;;;;;;5093300;28;20227;-77
2023/05/27 05:44:29;;;;;;;24.92;5.03;;;10.40;99.90;;;;;;5111294;28;20123;-79
2023/05/27 05:46:55;;;;;;;21.02;4.43;;;10.50;99.90;;;;;;5095286;28;20525;-77
2023/05/27 05:49:20;;;;;;;18.52;4.40;;;10.50;99.90;;;;;;5102201;28;20044;-77
2023/05/27 05:51:46;;;;;;;19.00;4.28;;;10.60;99.90;;;;;;5112258;28;20680;-77
2023/05/27 05:54:12;;;;;;;22.80;4.82;;;10.60;99.90;;;;;;5128683;27;20046;-83
2023/05/27 05:56:37;;;;;;;20.45;4.32;;;10.60;99.90;;;;;;5112181;28;20043;-77
2023/05/27 05:59:03;;;;;;;18.75;4.85;;;10.70;99.90;;;;;;5111639;28;20465;-78
2023/05/27 06:01:29;;;;;;;18.05;4.45;;;10.80;99.90;;;;;;5111485;28;20051;-78
2023/05/27 06:03:56;;;;;;;17.55;4.95;;;10.80;99.90;;;;;;5106786;28;20044;-77
2023/05/27 06:06:22;;;;;;;22.58;4.45;;;10.90;99.90;;;;;;5092034;28;20070;-77
2023/05/27 06:08:48;;;;;;;22.83;4.75;;;11.00;99.90;;;;;;5108012;28;20066;-78
2023/05/27 06:11:14;;;;;;;28.80;4.40;;;11.00;99.90;;;;;;5091216;28;20056;-82
2023/05/27 06:13:39;;;;;;;;;;;11.10;99.90;;;;;;5125316;27;20530;-77
2023/05/27 06:16:05;;;;;;;18.83;4.35;;;11.10;99.90;;;;;;5078136;28;19919;-77
2023/05/27 06:18:31;;;;;;;21.23;4.05;;;11.10;99.90;;;;;;5075125;28;20047;-79
2023/05/27 06:20:57;;;;;;;19.80;4.60;;;11.20;99.90;;;;;;5111581;28;20043;-78
2023/05/27 06:23:23;;;;;;;21.27;4.30;;;11.30;99.90;;;;;;5110980;28;20040;-78
2023/05/27 06:25:48;;;;;;;21.27;4.20;;;11.30;99.90;;;;;;5111263;28;20056;-77
2023/05/27 06:28:14;;;;;;;21.30;4.28;;;11.40;99.90;;;;;;5093159;28;20065;-83
2023/05/27 06:30:40;;;;;;;17.52;4.70;;;11.40;99.90;;;;;;5127825;27;20519;-77
2023/05/27 06:33:06;;;;;;;18.98;4.25;;;11.50;99.90;;;;;;5123083;27;20048;-75
2023/05/27 06:35:32;;;;;;;;;;;11.60;99.90;;;;;;5124960;27;20138;-77
2023/05/27 06:38:00;;;;;;;23.02;4.40;;;11.60;99.90;;;;;;5108319;28;19998;-75
2023/05/27 06:40:26;;;;;;;20.73;4.45;;;11.70;99.90;;;;;;5127688;27;20083;-76
2023/05/27 06:42:53;;;;;;;26.92;4.57;;;11.70;99.90;;;;;;5110654;28;20087;-76
2023/05/27 06:45:19;;;;;;;22.35;4.93;;;11.80;99.90;;;;;;5110701;28;20046;-75
2023/05/27 06:47:44;;;;;;;19.17;5.05;;;11.80;99.90;;;;;;5109265;28;20047;-77
2023/05/27 06:50:10;;;;;;;20.90;4.35;;;11.90;99.90;;;;;;5128127;27;20126;-77
2023/05/27 06:52:36;;;;;;;20.95;4.70;;;12.00;99.90;;;;;;5106909;28;20043;-75
2023/05/27 06:55:02;;;;;;;18.92;4.22;;;12.00;99.90;;;;;;5127816;27;20040;-76
2023/05/27 06:57:27;;;;;;;21.00;4.80;;;12.00;99.90;;;;;;5111193;27;20039;-75
2023/05/27 06:59:54;;;;;;;18.90;4.85;;;12.10;99.90;;;;;;5110567;28;20047;-70
2023/05/27 07:02:19;;;;;;;23.20;4.68;;;12.20;99.90;;;;;;5122814;27;20055;-74
2023/05/27 07:04:45;;;;;;;23.35;4.55;;;12.20;99.90;;;;;;5071060;28;20047;-75
2023/05/27 07:07:11;;;;;;;17.80;4.28;;;12.30;99.90;;;;;;5106219;28;20054;-74
2023/05/27 07:09:37;;;;;;;21.73;5.30;;;12.40;99.90;;;;;;5088151;28;20060;-74
2023/05/27 07:12:02;;;;;;;19.52;4.30;;;12.40;99.90;;;;;;5089655;28;20043;-73
2023/05/27 07:14:28;;;;;;;23.65;4.43;;;12.50;99.90;;;;;;5089283;28;20036;-74
2023/05/27 07:16:54;;;;;;;20.30;4.85;;;12.50;99.90;;;;;;5103107;28;20099;-74
2023/05/27 07:19:20;;;;;;;21.15;4.28;;;12.60;99.90;;;;;;5108648;28;20465;-74
2023/05/27 07:21:46;;;;;;;20.17;4.28;;;12.60;99.90;;;;;;5109942;28;20485;-76
2023/05/27 07:24:11;;;;;;;21.38;4.93;;;12.60;99.90;;;;;;5139886;27;20044;-76
2023/05/27 07:26:37;;;;;;;21.10;4.00;;;12.70;99.90;;;;;;5109416;28;20108;-74
2023/05/27 07:29:03;;;;;;;18.95;4.53;;;12.70;99.90;;;;;;5108827;28;20366;-74
2023/05/27 07:31:29;;;;;;;19.67;4.55;;;12.70;99.90;;;;;;5106414;28;20055;-75
2023/05/27 07:33:55;;;;;;;23.77;4.32;;;12.70;99.90;;;;;;5111763;28;20051;-75
2023/05/27 07:36:21;;;;;;;22.38;4.88;;;12.70;99.90;;;;;;5108684;28;20058;-79
2023/05/27 07:38:46;;;;;;;22.63;4.65;;;12.80;99.90;;;;;;5144281;27;20039;-74
2023/05/27 07:41:13;;;;;;;17.38;4.50;;;12.80;99.90;;;;;;5127337;28;20098;-75
2023/05/27 07:43:39;;;;;;;22.55;5.28;;;12.90;99.90;;;;;;5126382;28;20066;-74
2023/05/27 07:46:05;;;;;;;15.68;4.40;;;12.90;99.90;;;;;;5099005;28;20504;-74
2023/05/27 07:48:30;;;;;;;19.60;5.10;;;13.00;99.90;;;;;;5121295;28;20170;-74
2023/05/27 07:50:56;;;;;;;17.33;4.57;;;13.00;99.90;;;;;;5106663;28;20048;-75
2023/05/27 07:53:22;;;;;;;20.13;4.57;;;13.10;99.90;;;;;;5123229;28;20481;-79
2023/05/27 07:55:48;;;;;;;17.13;4.25;;;13.20;99.90;;;;;;5132685;27;20047;-74
2023/05/27 07:58:13;;;;;;;21.08;4.72;;;13.20;99.90;;;;;;5090910;28;20052;-75
2023/05/27 08:00:39;;;;;;;18.02;4.05;;;13.30;99.90;;;;;;5142045;27;20420;-74
2023/05/27 08:03:05;;;;;;;21.60;4.03;;;13.30;99.90;;;;;;5108035;28;20052;-76
2023/05/27 08:05:32;;;;;;;19.25;5.03;;;13.40;99.90;;;;;;5109487;28;20048;-70
2023/05/27 08:07:58;;;;;;;18.02;3.88;;;13.50;99.90;;;;;;5094217;28;20044;-71
2023/05/27 08:10:24;;;;;;;16.70;4.60;;;13.60;99.90;;;;;;5109552;28;20400;-77
2023/05/27 08:12:50;;;;;;;16.50;4.65;;;13.60;99.90;;;;;;5109102;28;20047;-71
2023/05/27 08:15:16;;;;;;;19.50;4.55;;;13.70;99.90;;;;;;5106043;28;20404;-71
2023/05/27 08:17:43;;;;;;;19.35;4.25;;;13.80;99.90;;;;;;5097568;28;20054;-75
2023/05/27 08:20:10;;;;;;;17.45;5.03;;;13.80;99.90;;;;;;5123092;27;20058;-72
2023/05/27 08:22:36;;;;;;;21.27;4.95;;;13.90;99.90;;;;;;5072177;28;20044;-71
2023/05/27 08:25:02;;;;;;;22.13;4.55;;;14.00;99.90;;;;;;5072712;28;20082;-71
2023/05/27 08:27:45;;;;;;;;;;;14.10;99.90;;;;;;5089071;28;20083;-69
2023/05/27 08:30:12;;;;;;;19.80;4.20;;;14.10;99.90;;;;;;5106954;28;19919;-69
2023/05/27 08:32:38;;;;;;;21.02;4.88;;;14.20;99.90;;;;;;5108634;28;20435;-72
2023/05/27 08:35:04;;;;;;;;;;;14.20;99.90;;;;;;5106409;28;20043;-73
2023/05/27 08:37:30;;;;;;;16.60;4.13;;;14.30;99.90;;;;;;5073971;28;19969;-73
2023/05/27 08:39:57;;;;;;;21.17;4.63;;;14.30;99.90;;;;;;5092690;28;20096;-73
2023/05/27 08:42:24;;;;;;;17.60;4.70;;;14.40;99.90;;;;;;5072505;28;20052;-73
2023/05/27 08:44:50;;;;;;;20.63;4.38;;;14.40;99.90;;;;;;5111806;28;20129;-74
2023/05/27 08:47:16;;;;;;;;;;;14.40;99.90;;;;;;5112143;28;20043;-78
2023/05/27 08:49:42;;;;;;;21.90;4.82;;;14.50;99.90;;;;;;5093948;28;19974;-73
2023/05/27 08:52:10;;;;;;;20.30;4.63;;;14.60;99.90;;;;;;5112633;28;20065;-75
2023/05/27 08:54:37;;;;;;;27.33;5.78;;;14.70;99.90;;;;;;5111717;28;20054;-76
2023/05/27 08:57:07;;;;;;;18.50;4.65;;;14.70;99.90;;;;;;5110862;28;20059;-72
2023/05/27 08:59:33;;;;;;;21.60;4.50;;;14.80;99.90;;;;;;5091580;28;20109;-71
2023/05/27 09:01:59;;;;;;;18.05;5.10;;;14.80;99.90;;;;;;5092597;28;20461;-74
2023/05/27 09:04:25;;;;;;;19.25;4.47;;;14.90;99.90;;;;;;5090694;28;20134;-74
2023/05/27 09:06:52;;;;;;;20.58;5.00;;;14.90;99.90;;;;;;5117284;27;20653;-74
2023/05/27 09:09:19;;;;;;;19.60;4.80;;;14.90;99.90;;;;;;5094499;28;20095;-75
2023/05/27 09:11:44;;;;;;;17.35;4.22;;;15.00;99.90;;;;;;5111376;28;20039;-74
2023/05/27 09:14:21;;;;;;;23.67;4.85;;;15.10;99.90;;;;;;5111965;28;20044;-75
2023/05/27 09:16:46;;;;;;;24.40;5.13;;;15.20;99.90;;;;;;5110195;28;20071;-75
2023/05/27 09:19:19;;;;;;;16.85;4.40;;;15.30;99.90;;;;;;5092728;28;20086;-76
2023/05/27 09:21:45;;;;;;;17.98;4.40;;;15.40;99.90;;;;;;5122518;27;20448;-74
2023/05/27 09:24:11;;;;;;;;;;;15.50;99.90;;;;;;5109576;28;20182;-74
2023/05/27 09:26:37;;;;;;;21.08;4.93;;;15.60;99.90;;;;;;5091548;28;19924;-75
2023/05/27 09:29:09;;;;;;;17.60;4.78;;;15.60;99.90;;;;;;5108251;28;20044;-74
2023/05/27 09:31:40;;;;;;;18.88;5.25;;;15.70;99.90;;;;;;5091589;28;20097;-81
2023/05/27 09:34:10;;;;;;;16.90;4.70;;;15.80;99.90;;;;;;5102298;28;20044;-75
2023/05/27 09:36:45;;;;;;;17.27;4.68;;;15.90;99.90;;;;;;5110535;28;20087;-81
2023/05/27 09:39:13;;;;;;;20.25;4.75;;;15.90;99.90;;;;;;5082887;28;20052;-72
2023/05/27 09:41:39;;;;;;;20.48;4.45;;;15.90;99.90;;;;;;5096875;28;20053;-73
2023/05/27 09:44:05;;;;;;;18.10;4.68;;;16.00;99.90;;;;;;5111703;28;20462;-76
2023/05/27 09:46:35;;;;;;;17.95;5.63;;;16.10;99.90;;;;;;5111907;28;20118;-74
2023/05/27 09:49:04;;;;;;;18.83;4.68;;;16.10;99.90;;;;;;5092639;28;20053;-73
2023/05/27 09:51:32;;;;;;;20.80;5.28;;;16.20;99.90;;;;;;5111490;28;20055;-70
2023/05/27 09:53:58;;;;;;;15.38;4.82;;;16.20;99.90;;;;;;5111368;28;20044;-74
2023/05/27 09:56:26;;;;;;;18.70;4.97;;;16.20;99.90;;;;;;5094842;28;20047;-74
2023/05/27 09:58:56;;;;;;;14.75;4.70;;;16.30;99.90;;;;;;5108728;28;20056;-71
2023/05/27 10:01:30;;;;;;;19.13;4.95;;;16.40;99.90;;;;;;5097881;28;20497;-75
2023/05/27 10:03:58;;;;;;;16.90;4.75;;;16.50;99.90;;;;;;5089683;28;20480;-74
2023/05/27 10:06:25;;;;;;;16.88;4.35;;;16.70;99.90;;;;;;5112680;28;20055;-73
2023/05/27 10:08:52;;;;;;;17.85;5.38;;;16.80;99.90;;;;;;5119429;27;20605;-74
2023/05/27 10:11:19;;;;;;;19.67;4.72;;;16.90;99.90;;;;;;5125242;27;20091;-77
2023/05/27 10:13:45;;;;;;;16.15;5.85;;;17.00;99.90;;;;;;5091199;28;20051;-77
2023/05/27 10:16:21;;;;;;;22.48;5.15;;;17.10;99.90;;;;;;5092043;28;20101;-76
2023/05/27 10:18:52;;;;;;;16.75;4.75;;;17.20;99.90;;;;;;5106735;28;20148;-76
2023/05/27 10:21:23;;;;;;;12.30;3.92;;;17.20;99.90;;;;;;5090335;28;20122;-72
2023/05/27 10:24:10;;;;;;;13.43;3.95;;;17.30;99.90;;;;;;5090610;28;20560;-72
2023/05/27 10:26:38;;;;;;;16.60;4.65;;;17.60;99.90;;;;;;5090718;28;20185;-73
2023/05/27 10:29:09;;;;;;;19.83;5.18;;;17.90;99.90;;;;;;5104210;28;20122;-76
2023/05/27 10:31:38;;;;;;;14.75;4.20;;;17.90;99.90;;;;;;5079588;28;20400;-78
2023/05/27 10:34:08;;;;;;;14.07;3.83;;;17.90;99.90;;;;;;5090577;28;20067;-78
2023/05/27 10:36:33;;;;;;;18.90;5.00;;;17.90;99.90;;;;;;5124932;27;20043;-78
2023/05/27 10:39:04;;;;;;;17.50;4.20;;;18.00;99.90;;;;;;5090039;28;20052;-74
2023/05/27 10:41:51;;;;;;;13.23;3.53;;;18.10;99.90;;;;;;5109653;28;20064;-75
2023/05/27 10:44:34;;;;;;;16.98;3.92;;;18.30;99.90;;;;;;5110548;28;20055;-75
2023/05/27 10:47:01;;;;;;;16.70;4.85;;;18.60;99.90;;;;;;5109989;28;20044;-72
2023/05/27 10:49:35;;;;;;;14.35;4.43;;;18.80;99.90;;;;;;5108681;28;20051;-73
2023/05/27 10:52:12;;;;;;;16.95;4.55;;;18.90;99.50;;;;;;5087267;28;20118;-73
2023/05/27 10:54:50;;;;;;;19.90;5.35;;;19.00;98.00;;;;;;5124823;27;20044;-73
2023/05/27 10:57:17;;;;;;;16.38;4.78;;;19.00;96.90;;;;;;5124244;27;20108;-72
2023/05/27 10:59:49;;;;;;;15.65;5.22;;;19.00;97.50;;;;;;5107157;28;20123;-80
2023/05/27 11:02:16;;;;;;;17.20;4.78;;;19.00;99.00;;;;;;5089397;28;20051;-75
2023/05/27 11:04:42;;;;;;;14.60;4.55;;;19.00;99.90;;;;;;5088622;28;20109;-72
2023/05/27 11:07:07;;;;;;;;;;;19.00;99.90;;;;;;5092897;28;20048;-73
2023/05/27 11:09:43;;;;;;;17.02;4.88;;;19.10;99.90;;;;;;5109851;28;20289;-73
2023/05/27 11:12:16;;;;;;;17.83;5.20;;;19.10;99.60;;;;;;5091920;28;20047;-74
2023/05/27 11:14:47;;;;;;;19.60;4.45;;;19.30;99.00;;;;;;5110402;28;20043;-75
2023/05/27 11:17:13;;;;;;;13.93;4.25;;;19.50;97.60;;;;;;5119904;27;20051;-76
2023/05/27 11:19:42;;;;;;;;;;;19.80;96.20;;;;;;5109178;28;20507;-75
2023/05/27 11:22:10;;;;;;;16.70;4.13;;;20.00;96.30;;;;;;5099795;28;20018;-78
2023/05/27 11:24:36;;;;;;;17.45;4.82;;;20.10;95.30;;;;;;5101838;28;20453;-82
2023/05/27 11:27:13;;;;;;;16.08;4.43;;;20.40;93.50;;;;;;5111597;28;20043;-79
2023/05/27 11:29:39;;;;;;;14.23;4.57;;;20.60;92.40;;;;;;5110118;28;20062;-80
2023/05/27 11:32:06;;;;;;;15.30;4.60;;;;;;;;;;5091858;28;20107;-79
2023/05/27 11:34:36;;;;;;;15.65;4.32;;;;;;;;;;5108035;28;20040;-84
2023/05/27 11:37:05;;;;;;;15.05;4.32;;;24.80;77.80;;;;;;5106806;28;20495;-79
2023/05/27 11:39:31;;;;;;;19.45;4.60;;;26.50;71.70;;;;;;5093303;28;20477;-83
2023/05/27 11:41:58;;;;;;;18.13;4.43;;;28.60;74.70;;;;;;5092622;28;20082;-84
2023/05/27 11:44:25;;;;;;;17.58;4.43;;;30.10;60.80;;;;;;5092825;28;20163;-79
2023/05/27 11:46:52;;;;;;;16.20;4.13;;;31.30;56.50;;;;;;5073501;28;20048;-80
2023/05/27 11:49:19;;;;;;;13.20;3.78;;;32.20;54.60;;;;;;5114482;28;20044;-80
2023/05/27 11:51:49;;;;;;;16.40;4.03;;;33.40;52.20;;;;;;5109967;28;20062;-80
2023/05/27 11:54:25;;;;;;;14.63;4.55;;;34.40;50.50;;;;;;5110002;28;20058;-80
2023/05/27 11:56:52;;;;;;;15.88;4.43;;;35.50;48.60;;;;;;5109595;28;20093;-83
2023/05/27 11:59:19;;;;;;;12.25;3.67;;;36.70;46.40;;;;;;5126627;28;20055;-81
2023/05/27 12:01:45;;;;;;;14.18;4.28;;;37.50;45.00;;;;;;5110291;28;20044;-79
2023/05/27 12:04:11;;;;;;;16.58;4.05;;;38.30;43.50;;;;;;5099997;28;20055;-81
2023/05/27 12:06:38;;;;;;;12.35;4.20;;;38.80;42.10;;;;;;5110723;28;20039;-81
2023/05/27 12:09:05;;;;;;;16.63;3.85;;;39.40;41.40;;;;;;5108750;28;20134;-81
2023/05/27 12:11:31;;;;;;;10.32;3.40;;;;;;;;;;5109867;28;20530;-81
2023/05/27 12:13:58;;;;;;;13.20;3.80;;;41.30;38.30;;;;;;5108832;28;20044;-81
2023/05/27 12:16:24;;;;;;;15.55;3.67;;;;;;;;;;5113438;28;20047;-81
2023/05/27 12:18:50;;;;;;;11.00;3.90;;;41.90;37.60;;;;;;5109527;28;20044;-86
2023/05/27 12:21:16;;;;;;;13.90;3.63;;;42.50;37.10;;;;;;5113691;28;20389;-81
2023/05/27 12:23:42;;;;;;;12.23;4.00;;;42.80;36.30;;;;;;5113789;28;20051;-81
2023/05/27 12:26:09;;;;;;;10.85;3.75;;;43.70;36.40;;;;;;5130253;27;20051;-82
2023/05/27 12:28:36;;;;;;;13.95;4.00;;;;;;;;;;5113101;28;20043;-81
2023/05/27 12:31:02;;;;;;;10.00;3.30;;;;;;;;;;5112970;28;20043;-81
2023/05/27 12:33:28;;;;;;;14.77;3.53;;;;;;;;;;5109397;28;20067;-81
2023/05/27 12:35:54;;;;;;;13.25;3.30;;;;;;;;;;5129913;27;20054;-84
2023/05/27 12:38:20;;;;;;;15.60;3.80;;;;;;;;;;5096365;28;20438;-81
2023/05/27 12:40:46;;;;;;;12.43;3.53;;;;;;;;;;5130518;27;20051;-81
2023/05/27 12:43:12;;;;;;;13.00;3.95;;;45.00;35.50;;;;;;5112229;28;20126;-81
2023/05/27 12:45:38;;;;;;;11.82;4.00;;;45.10;34.20;;;;;;5113397;28;20135;-81
2023/05/27 12:48:04;;;;;;;11.90;3.38;;;45.60;33.50;;;;;;5110633;28;20063;-82